createdAt,value
2018-03-16T00:00:35.178Z,0.00
2018-03-16T00:01:35.431Z,0.00
2018-03-16T00:02:35.680Z,0.00
2018-03-16T00:03:35.929Z,0.00
2018-03-16T00:04:36.180Z,0.00
2018-03-16T00:05:36.418Z,0.00
2018-03-16T00:06:36.666Z,0.00
2018-03-16T00:07:36.917Z,0.00
2018-03-16T00:08:37.168Z,0.00
2018-03-16T00:09:37.417Z,0.00
2018-03-16T00:10:37.668Z,0.00
2018-03-16T00:11:37.922Z,0.00
2018-03-16T00:12:38.172Z,0.00
2018-03-16T00:13:38.424Z,0.00
2018-03-16T00:14:38.673Z,0.00
2018-03-16T00:15:38.927Z,0.00
2018-03-16T00:16:39.176Z,0.00
2018-03-16T00:17:39.427Z,0.00
2018-03-16T00:18:39.678Z,0.00
2018-03-16T00:19:39.930Z,0.00
2018-03-16T00:20:40.176Z,0.00
2018-03-16T00:21:40.429Z,0.00
2018-03-16T00:22:40.677Z,0.00
2018-03-16T00:23:40.925Z,0.00
2018-03-16T00:24:41.174Z,0.00
2018-03-16T00:25:41.432Z,0.00
2018-03-16T00:26:41.679Z,0.00
2018-03-16T00:27:41.935Z,0.00
2018-03-16T00:28:42.185Z,0.00
2018-03-16T00:29:42.435Z,0.00
2018-03-16T00:30:42.699Z,0.00
2018-03-16T00:31:42.957Z,0.00
2018-03-16T00:32:43.172Z,0.00
2018-03-16T00:33:43.424Z,0.00
2018-03-16T00:34:43.677Z,0.00
2018-03-16T00:35:43.922Z,0.00
2018-03-16T00:36:44.176Z,0.00
2018-03-16T00:37:44.427Z,0.00
2018-03-16T00:38:44.674Z,0.00
2018-03-16T00:39:44.923Z,0.00
2018-03-16T00:40:45.170Z,0.00
2018-03-16T00:41:45.423Z,0.00
2018-03-16T00:42:45.677Z,0.00
2018-03-16T00:43:45.924Z,0.00
2018-03-16T00:44:46.177Z,0.00
2018-03-16T00:45:46.421Z,0.00
2018-03-16T00:46:46.672Z,0.00
2018-03-16T00:47:46.922Z,0.00
2018-03-16T00:48:47.169Z,0.00
2018-03-16T00:49:47.420Z,0.00
2018-03-16T00:50:47.672Z,0.00
2018-03-16T00:51:47.913Z,0.00
2018-03-16T00:52:48.163Z,0.00
2018-03-16T00:53:48.415Z,0.00
2018-03-16T00:54:48.663Z,0.00
2018-03-16T00:55:48.916Z,0.00
2018-03-16T00:56:49.175Z,0.00
2018-03-16T00:57:49.421Z,0.00
2018-03-16T00:58:49.669Z,0.00
2018-03-16T00:59:49.921Z,0.00
2018-03-16T01:00:50.170Z,0.00
2018-03-16T01:01:50.421Z,0.00
2018-03-16T01:02:50.668Z,0.00
2018-03-16T01:03:50.909Z,0.00
2018-03-16T01:04:51.169Z,0.00
2018-03-16T01:05:51.423Z,0.00
2018-03-16T01:06:51.673Z,0.00
2018-03-16T01:07:51.925Z,0.00
2018-03-16T01:08:52.171Z,0.00
2018-03-16T01:09:52.439Z,0.00
2018-03-16T01:10:52.667Z,0.00
2018-03-16T01:11:52.914Z,0.00
2018-03-16T01:12:53.158Z,0.00
2018-03-16T01:13:53.406Z,0.00
2018-03-16T01:14:53.648Z,0.00
2018-03-16T01:15:53.896Z,0.00
2018-03-16T01:16:54.143Z,0.00
2018-03-16T01:17:54.404Z,0.00
2018-03-16T01:18:54.650Z,0.00
2018-03-16T01:19:54.900Z,0.00
2018-03-16T01:20:55.146Z,0.00
2018-03-16T01:21:55.406Z,0.00
2018-03-16T01:22:55.653Z,0.00
2018-03-16T01:23:55.893Z,0.00
2018-03-16T01:24:56.138Z,0.00
2018-03-16T01:25:56.378Z,0.00
2018-03-16T01:26:56.643Z,0.00
2018-03-16T01:27:56.898Z,0.00
2018-03-16T01:28:57.150Z,0.00
2018-03-16T01:29:57.407Z,0.00
2018-03-16T01:30:57.638Z,0.00
2018-03-16T01:31:57.879Z,0.00
2018-03-16T01:32:58.116Z,0.00
2018-03-16T01:33:58.375Z,0.00
2018-03-16T01:34:58.626Z,0.00
2018-03-16T01:35:58.877Z,0.00
2018-03-16T01:36:59.137Z,0.00
2018-03-16T01:37:59.355Z,0.00
2018-03-16T01:38:59.597Z,0.00
2018-03-16T01:39:59.858Z,0.00
2018-03-16T01:41:00.095Z,0.00
2018-03-16T01:42:00.338Z,0.00
2018-03-16T01:43:00.594Z,0.00
2018-03-16T01:44:00.837Z,0.00
2018-03-16T01:45:01.080Z,0.00
2018-03-16T01:46:01.344Z,0.00
2018-03-16T01:47:01.585Z,0.00
2018-03-16T01:48:01.833Z,0.00
2018-03-16T01:49:02.084Z,0.00
2018-03-16T01:50:02.321Z,0.00
2018-03-16T01:51:02.603Z,0.00
2018-03-16T01:52:02.820Z,0.00
2018-03-16T01:53:03.063Z,0.00
2018-03-16T01:54:03.303Z,0.00
2018-03-16T01:55:03.553Z,0.00
2018-03-16T01:56:03.790Z,0.00
2018-03-16T01:57:04.032Z,0.00
2018-03-16T01:58:04.269Z,0.00
2018-03-16T01:59:04.518Z,0.00
2018-03-16T02:00:04.773Z,0.00
2018-03-16T02:01:05.010Z,0.00
2018-03-16T02:02:05.266Z,0.00
2018-03-16T02:03:05.510Z,0.00
2018-03-16T02:04:05.748Z,0.00
2018-03-16T02:05:05.981Z,0.00
2018-03-16T02:06:06.227Z,0.00
2018-03-16T02:07:06.482Z,0.00
2018-03-16T02:08:06.724Z,0.00
2018-03-16T02:09:06.982Z,0.00
2018-03-16T02:10:07.223Z,0.00
2018-03-16T02:11:07.472Z,0.00
2018-03-16T02:12:07.711Z,0.00
2018-03-16T02:13:07.955Z,0.00
2018-03-16T02:14:08.194Z,0.00
2018-03-16T02:15:08.450Z,0.00
2018-03-16T02:16:08.688Z,0.00
2018-03-16T02:17:08.936Z,0.00
2018-03-16T02:18:09.195Z,0.00
2018-03-16T02:19:09.420Z,0.00
2018-03-16T02:20:09.662Z,0.00
2018-03-16T02:21:09.925Z,0.00
2018-03-16T02:22:10.152Z,0.00
2018-03-16T02:23:10.395Z,0.00
2018-03-16T02:24:10.638Z,0.00
2018-03-16T02:25:10.896Z,0.00
2018-03-16T02:26:11.131Z,0.00
2018-03-16T02:27:11.379Z,0.00
2018-03-16T02:28:11.616Z,0.00
2018-03-16T02:29:11.866Z,0.00
2018-03-16T02:30:12.100Z,0.00
2018-03-16T02:31:12.350Z,0.00
2018-03-16T02:32:12.581Z,0.00
2018-03-16T02:33:12.827Z,0.00
2018-03-16T02:34:13.091Z,0.00
2018-03-16T02:35:13.337Z,0.00
2018-03-16T02:36:13.569Z,0.00
2018-03-16T02:37:13.813Z,0.00
2018-03-16T02:38:14.069Z,0.00
2018-03-16T02:39:14.301Z,0.00
2018-03-16T02:40:14.558Z,0.00
2018-03-16T02:41:14.790Z,0.00
2018-03-16T02:42:15.035Z,0.00
2018-03-16T02:43:15.299Z,0.00
2018-03-16T02:44:15.547Z,0.00
2018-03-16T02:45:15.824Z,0.00
2018-03-16T02:46:16.061Z,0.00
2018-03-16T02:47:16.292Z,0.00
2018-03-16T02:48:16.534Z,0.00
2018-03-16T02:49:16.778Z,0.00
2018-03-16T02:50:17.057Z,0.00
2018-03-16T02:51:17.301Z,0.00
2018-03-16T02:52:17.547Z,0.00
2018-03-16T02:53:17.790Z,0.00
2018-03-16T02:54:18.041Z,0.00
2018-03-16T02:55:18.283Z,0.00
2018-03-16T02:56:18.524Z,0.00
2018-03-16T02:57:18.775Z,0.00
2018-03-16T02:58:19.036Z,0.00
2018-03-16T02:59:19.288Z,0.00
2018-03-16T03:00:19.511Z,0.00
2018-03-16T03:01:19.759Z,0.00
2018-03-16T03:02:20.030Z,0.00
2018-03-16T03:03:20.284Z,0.00
2018-03-16T03:04:20.541Z,0.00
2018-03-16T03:05:20.761Z,0.00
2018-03-16T03:06:21.023Z,0.00
2018-03-16T03:07:21.267Z,0.00
2018-03-16T03:08:21.493Z,0.00
2018-03-16T03:09:21.754Z,0.00
2018-03-16T03:10:21.989Z,0.00
2018-03-16T03:11:22.223Z,0.00
2018-03-16T03:12:22.472Z,0.00
2018-03-16T03:13:22.728Z,0.00
2018-03-16T03:14:22.977Z,0.00
2018-03-16T03:15:23.225Z,0.00
2018-03-16T03:16:23.489Z,0.00
2018-03-16T03:17:23.730Z,0.00
2018-03-16T03:18:23.973Z,0.00
2018-03-16T03:19:24.208Z,0.00
2018-03-16T03:20:24.460Z,0.00
2018-03-16T03:21:24.696Z,0.00
2018-03-16T03:22:24.943Z,0.00
2018-03-16T03:23:25.176Z,0.00
2018-03-16T03:24:25.428Z,0.00
2018-03-16T03:25:25.673Z,0.00
2018-03-16T03:26:25.918Z,0.00
2018-03-16T03:27:26.156Z,0.00
2018-03-16T03:28:26.424Z,0.00
2018-03-16T03:29:26.646Z,0.00
2018-03-16T03:30:26.885Z,0.00
2018-03-16T03:31:27.130Z,0.00
2018-03-16T03:32:27.364Z,0.00
2018-03-16T03:33:27.616Z,0.00
2018-03-16T03:34:27.851Z,0.00
2018-03-16T03:35:28.087Z,0.00
2018-03-16T03:37:59.935Z,0.00
2018-03-16T03:39:00.186Z,0.00
2018-03-16T03:40:00.430Z,0.00
2018-03-16T03:41:00.680Z,0.00
2018-03-16T03:42:00.930Z,0.00
2018-03-16T03:43:01.172Z,0.00
2018-03-16T03:44:01.427Z,0.00
2018-03-16T03:45:01.666Z,0.00
2018-03-16T03:46:01.924Z,0.00
2018-03-16T03:47:02.174Z,0.00
2018-03-16T03:48:02.425Z,0.00
2018-03-16T03:49:02.671Z,0.00
2018-03-16T03:50:02.922Z,0.00
2018-03-16T03:51:03.174Z,0.00
2018-03-16T03:52:03.422Z,0.00
2018-03-16T03:53:03.674Z,0.00
2018-03-16T03:54:03.921Z,0.00
2018-03-16T03:55:04.168Z,0.00
2018-03-16T03:56:04.420Z,0.00
2018-03-16T03:57:04.666Z,0.00
2018-03-16T03:58:04.920Z,0.00
2018-03-16T03:59:05.168Z,0.00
2018-03-16T04:00:05.428Z,0.00
2018-03-16T04:01:05.674Z,0.00
2018-03-16T04:02:05.927Z,0.00
2018-03-16T04:03:06.177Z,0.00
2018-03-16T04:04:06.422Z,0.00
2018-03-16T04:05:06.670Z,0.00
2018-03-16T04:06:06.925Z,0.00
2018-03-16T04:07:07.176Z,0.00
2018-03-16T04:08:07.436Z,0.00
2018-03-16T04:09:07.665Z,0.00
2018-03-16T04:10:07.916Z,0.00
2018-03-16T04:11:08.158Z,0.00
2018-03-16T04:12:08.413Z,0.00
2018-03-16T04:13:08.658Z,0.00
2018-03-16T04:14:08.910Z,0.00
2018-03-16T04:15:09.156Z,0.00
2018-03-16T04:16:09.406Z,0.00
2018-03-16T04:17:09.656Z,0.00
2018-03-16T04:18:09.909Z,0.00
2018-03-16T04:19:10.158Z,0.00
2018-03-16T04:20:10.407Z,0.00
2018-03-16T04:21:10.656Z,0.00
2018-03-16T04:22:10.904Z,0.00
2018-03-16T04:23:11.147Z,0.00
2018-03-16T04:24:11.401Z,0.00
2018-03-16T04:25:11.648Z,0.00
2018-03-16T04:26:11.898Z,0.00
2018-03-16T04:27:12.144Z,0.00
2018-03-16T04:28:12.410Z,0.00
2018-03-16T04:29:12.640Z,0.00
2018-03-16T04:30:12.890Z,0.00
2018-03-16T04:31:13.138Z,0.00
2018-03-16T04:32:13.388Z,0.00
2018-03-16T04:33:13.642Z,0.00
2018-03-16T04:34:13.887Z,0.00
2018-03-16T04:35:14.146Z,0.00
2018-03-16T04:36:14.393Z,0.00
2018-03-16T04:37:14.641Z,0.00
2018-03-16T04:38:14.890Z,0.00
2018-03-16T04:39:15.136Z,0.00
2018-03-16T04:40:15.388Z,0.00
2018-03-16T04:41:15.639Z,0.00
2018-03-16T04:42:15.889Z,0.00
2018-03-16T04:43:16.140Z,0.00
2018-03-16T04:44:16.395Z,0.00
2018-03-16T04:45:16.641Z,0.00
2018-03-16T04:46:16.892Z,0.00
2018-03-16T04:47:17.142Z,0.00
2018-03-16T04:48:17.395Z,0.00
2018-03-16T04:49:17.642Z,0.00
2018-03-16T04:50:17.895Z,0.00
2018-03-16T04:51:18.146Z,0.00
2018-03-16T04:52:18.394Z,0.00
2018-03-16T04:53:18.639Z,0.00
2018-03-16T04:54:18.899Z,0.00
2018-03-16T04:55:19.148Z,0.00
2018-03-16T04:56:19.401Z,0.00
2018-03-16T04:57:19.638Z,0.00
2018-03-16T04:58:19.884Z,0.00
2018-03-16T04:59:20.138Z,0.00
2018-03-16T05:00:20.390Z,0.00
2018-03-16T05:01:20.639Z,0.00
2018-03-16T05:02:20.893Z,0.00
2018-03-16T05:03:21.141Z,0.00
2018-03-16T05:04:21.389Z,0.00
2018-03-16T05:05:21.644Z,8.00
2018-03-16T05:06:21.897Z,0.00
2018-03-16T05:07:22.145Z,0.00
2018-03-16T05:08:22.398Z,0.00
2018-03-16T05:09:22.647Z,0.00
2018-03-16T05:10:22.896Z,0.00
2018-03-16T05:11:23.147Z,0.00
2018-03-16T05:12:23.399Z,4.00
2018-03-16T05:13:23.655Z,4.00
2018-03-16T05:14:23.906Z,4.00
2018-03-16T05:15:24.158Z,4.00
2018-03-16T05:16:24.411Z,4.00
2018-03-16T05:17:24.658Z,0.00
2018-03-16T05:18:24.911Z,4.00
2018-03-16T05:19:25.158Z,4.00
2018-03-16T05:20:25.404Z,4.00
2018-03-16T05:21:25.649Z,4.00
2018-03-16T05:22:25.893Z,4.00
2018-03-16T05:23:26.142Z,4.00
2018-03-16T05:24:26.400Z,8.00
2018-03-16T05:25:26.667Z,8.00
2018-03-16T05:26:26.911Z,8.00
2018-03-16T05:27:27.167Z,8.00
2018-03-16T05:28:27.413Z,8.00
2018-03-16T05:29:27.668Z,8.00
2018-03-16T05:30:27.916Z,12.00
2018-03-16T05:31:28.172Z,12.00
2018-03-16T05:32:28.431Z,16.00
2018-03-16T05:33:28.675Z,16.00
2018-03-16T05:34:28.926Z,20.00
2018-03-16T05:35:29.174Z,20.00
2018-03-16T05:36:29.438Z,20.00
2018-03-16T05:37:29.689Z,24.00
2018-03-16T05:38:29.947Z,24.00
2018-03-16T05:39:30.186Z,28.00
2018-03-16T05:40:30.435Z,28.00
2018-03-16T05:41:30.690Z,36.00
2018-03-16T05:42:30.939Z,36.00
2018-03-16T05:43:31.186Z,44.00
2018-03-16T05:44:31.439Z,44.00
2018-03-16T05:45:31.708Z,52.00
2018-03-16T05:46:31.938Z,56.00
2018-03-16T05:47:32.193Z,60.00
2018-03-16T05:48:32.442Z,64.00
2018-03-16T05:49:32.692Z,72.00
2018-03-16T05:50:32.945Z,76.00
2018-03-16T05:51:33.193Z,76.00
2018-03-16T05:52:33.440Z,84.00
2018-03-16T05:53:33.697Z,88.00
2018-03-16T05:54:33.940Z,92.00
2018-03-16T05:55:34.194Z,100.00
2018-03-16T05:56:34.445Z,104.00
2018-03-16T05:57:34.693Z,108.00
2018-03-16T05:58:34.944Z,116.00
2018-03-16T05:59:35.193Z,120.00
2018-03-16T06:00:35.444Z,124.00
2018-03-16T06:01:35.698Z,132.00
2018-03-16T06:02:35.949Z,136.00
2018-03-16T06:03:36.201Z,144.00
2018-03-16T06:04:36.456Z,148.00
2018-03-16T06:05:36.698Z,156.00
2018-03-16T06:06:36.962Z,156.00
2018-03-16T06:07:37.212Z,160.00
2018-03-16T06:08:37.453Z,164.00
2018-03-16T06:09:37.708Z,168.00
2018-03-16T06:10:37.958Z,172.00
2018-03-16T06:11:38.196Z,180.00
2018-03-16T06:12:38.445Z,184.00
2018-03-16T06:13:38.691Z,192.00
2018-03-16T06:14:38.943Z,200.00
2018-03-16T06:15:39.193Z,208.00
2018-03-16T06:16:39.445Z,216.00
2018-03-16T06:17:39.690Z,224.00
2018-03-16T06:18:39.944Z,232.00
2018-03-16T06:19:40.194Z,232.00
2018-03-16T06:20:40.434Z,236.00
2018-03-16T06:21:40.681Z,240.00
2018-03-16T06:22:40.930Z,244.00
2018-03-16T06:23:41.171Z,248.00
2018-03-16T06:24:41.427Z,252.00
2018-03-16T06:25:41.682Z,260.00
2018-03-16T06:26:41.936Z,264.00
2018-03-16T06:27:42.189Z,272.00
2018-03-16T06:28:42.440Z,276.00
2018-03-16T06:29:42.690Z,288.00
2018-03-16T06:30:42.942Z,292.00
2018-03-16T06:31:43.192Z,292.00
2018-03-16T06:32:43.503Z,296.00
2018-03-16T06:35:16.871Z,308.00
2018-03-16T06:36:17.128Z,312.00
2018-03-16T06:37:17.368Z,328.00
2018-03-16T06:38:17.600Z,332.00
2018-03-16T06:39:17.933Z,336.00
2018-03-16T06:40:18.119Z,344.00
2018-03-16T06:41:18.373Z,352.00
2018-03-16T06:42:18.623Z,360.00
2018-03-16T06:43:18.877Z,368.00
2018-03-16T06:44:19.138Z,380.00
2018-03-16T06:45:19.413Z,384.00
2018-03-16T06:46:19.664Z,392.00
2018-03-16T06:47:19.914Z,404.00
2018-03-16T06:48:20.164Z,416.00
2018-03-16T06:49:20.417Z,424.00
2018-03-16T06:50:20.668Z,436.00
2018-03-16T06:51:20.917Z,440.00
2018-03-16T06:52:21.171Z,452.00
2018-03-16T06:53:21.421Z,460.00
2018-03-16T06:54:21.685Z,472.00
2018-03-16T06:55:21.942Z,476.00
2018-03-16T06:56:22.193Z,480.00
2018-03-16T06:57:22.450Z,488.00
2018-03-16T06:58:22.704Z,488.00
2018-03-16T06:59:22.958Z,492.00
2018-03-16T07:00:23.206Z,504.00
2018-03-16T07:01:23.455Z,508.00
2018-03-16T07:02:23.706Z,520.00
2018-03-16T07:03:23.956Z,536.00
2018-03-16T07:04:24.204Z,552.00
2018-03-16T07:05:24.478Z,572.00
2018-03-16T07:06:24.732Z,588.00
2018-03-16T07:07:24.989Z,616.00
2018-03-16T07:08:25.238Z,628.00
2018-03-16T07:09:25.491Z,652.00
2018-03-16T07:10:25.747Z,664.00
2018-03-16T07:11:25.996Z,688.00
2018-03-16T07:12:26.253Z,696.00
2018-03-16T07:13:26.498Z,712.00
2018-03-16T07:14:26.750Z,736.00
2018-03-16T07:15:27.001Z,760.00
2018-03-16T07:16:27.264Z,788.00
2018-03-16T07:17:27.504Z,820.00
2018-03-16T07:18:27.761Z,856.00
2018-03-16T07:19:28.011Z,876.00
2018-03-16T07:20:28.260Z,888.00
2018-03-16T07:21:28.522Z,896.00
2018-03-16T07:22:28.762Z,900.00
2018-03-16T07:23:29.023Z,904.00
2018-03-16T07:24:29.273Z,904.00
2018-03-16T07:25:29.525Z,888.00
2018-03-16T07:26:29.777Z,888.00
2018-03-16T07:27:30.023Z,908.00
2018-03-16T07:28:30.276Z,924.00
2018-03-16T07:29:30.526Z,972.00
2018-03-16T07:30:30.780Z,1020.00
2018-03-16T07:31:31.028Z,1056.00
2018-03-16T07:32:31.282Z,1056.00
2018-03-16T07:33:31.537Z,1048.00
2018-03-16T07:34:31.804Z,1072.00
2018-03-16T07:35:32.037Z,1080.00
2018-03-16T07:36:32.288Z,1084.00
2018-03-16T07:37:32.541Z,1100.00
2018-03-16T07:38:32.795Z,1096.00
2018-03-16T07:39:33.046Z,1100.00
2018-03-16T07:40:33.301Z,1124.00
2018-03-16T07:41:33.545Z,1176.00
2018-03-16T07:42:33.803Z,1244.00
2018-03-16T07:43:34.049Z,1328.00
2018-03-16T07:44:34.296Z,1408.00
2018-03-16T07:45:34.543Z,1476.00
2018-03-16T07:46:34.795Z,1520.00
2018-03-16T07:47:35.052Z,1572.00
2018-03-16T07:48:35.303Z,1592.00
2018-03-16T07:49:35.546Z,1652.00
2018-03-16T07:50:36.405Z,1676.00
2018-03-16T07:51:36.195Z,1732.00
2018-03-16T07:52:36.427Z,1784.00
2018-03-16T07:53:36.673Z,1880.00
2018-03-16T07:54:37.008Z,1908.00
2018-03-16T07:55:37.179Z,1940.00
2018-03-16T07:56:37.438Z,2028.00
2018-03-16T07:57:37.654Z,2120.00
2018-03-16T07:58:37.891Z,2144.00
2018-03-16T07:59:38.142Z,2184.00
2018-03-16T08:00:38.381Z,2260.00
2018-03-16T08:01:38.629Z,2312.00
2018-03-16T08:02:38.873Z,2368.00
2018-03-16T08:03:39.110Z,2384.00
2018-03-16T08:04:39.372Z,2412.00
2018-03-16T08:05:39.626Z,2416.00
2018-03-16T08:06:39.843Z,2420.00
2018-03-16T08:07:40.111Z,2464.00
2018-03-16T08:08:40.359Z,2556.00
2018-03-16T08:09:40.611Z,2620.00
2018-03-16T08:10:40.870Z,2688.00
2018-03-16T08:11:41.124Z,2824.00
2018-03-16T08:12:41.379Z,2720.00
2018-03-16T08:13:41.631Z,2700.00
2018-03-16T08:14:41.896Z,2692.00
2018-03-16T08:15:42.148Z,2624.00
2018-03-16T08:16:42.405Z,2564.00
2018-03-16T08:17:42.658Z,2464.00
2018-03-16T08:18:42.912Z,2396.00
2018-03-16T08:19:43.164Z,2344.00
2018-03-16T08:20:43.422Z,2428.00
2018-03-16T08:21:43.670Z,2488.00
2018-03-16T08:22:43.930Z,2608.00
2018-03-16T08:23:44.185Z,2640.00
2018-03-16T08:24:44.440Z,2696.00
2018-03-16T08:25:44.696Z,2764.00
2018-03-16T08:26:44.950Z,2824.00
2018-03-16T08:27:45.223Z,2832.00
2018-03-16T08:28:45.459Z,2908.00
2018-03-16T08:29:45.714Z,3004.00
2018-03-16T08:30:45.971Z,3036.00
2018-03-16T08:31:46.229Z,3000.00
2018-03-16T08:32:46.486Z,2980.00
2018-03-16T08:33:46.737Z,2920.00
2018-03-16T08:34:46.986Z,2892.00
2018-03-16T08:35:47.243Z,2884.00
2018-03-16T08:36:47.487Z,2892.00
2018-03-16T08:37:47.744Z,2932.00
2018-03-16T08:38:47.995Z,2956.00
2018-03-16T08:39:48.245Z,2924.00
2018-03-16T08:40:48.519Z,2924.00
2018-03-16T08:41:48.776Z,2888.00
2018-03-16T08:42:49.024Z,2868.00
2018-03-16T08:43:49.291Z,2864.00
2018-03-16T08:44:49.518Z,2872.00
2018-03-16T08:45:49.765Z,2852.00
2018-03-16T08:46:50.017Z,2744.00
2018-03-16T08:47:50.274Z,2672.00
2018-03-16T08:48:50.517Z,2592.00
2018-03-16T08:49:50.763Z,2552.00
2018-03-16T08:50:51.009Z,2548.00
2018-03-16T08:51:51.286Z,2564.00
2018-03-16T08:52:51.539Z,2604.00
2018-03-16T08:53:52.051Z,2584.00
2018-03-16T08:54:52.197Z,2552.00
2018-03-16T08:55:52.360Z,2524.00
2018-03-16T08:56:52.597Z,2524.00
2018-03-16T08:57:53.610Z,2544.00
2018-03-16T08:58:53.314Z,2612.00
2018-03-16T08:59:53.497Z,2660.00
2018-03-16T09:00:53.735Z,2620.00
2018-03-16T09:01:55.047Z,2608.00
2018-03-16T09:02:54.346Z,2644.00
2018-03-16T09:03:54.564Z,2596.00
2018-03-16T09:04:54.795Z,2476.00
2018-03-16T09:05:55.071Z,2376.00
2018-03-16T09:06:55.456Z,2332.00
2018-03-16T09:07:55.683Z,2308.00
2018-03-16T09:08:55.895Z,2252.00
2018-03-16T09:09:56.114Z,2244.00
2018-03-16T09:10:56.369Z,2192.00
2018-03-16T09:11:56.621Z,2100.00
2018-03-16T09:12:56.870Z,2100.00
2018-03-16T09:13:57.118Z,2100.00
2018-03-16T09:14:59.196Z,2148.00
2018-03-16T09:15:57.845Z,2220.00
2018-03-16T09:16:58.211Z,2268.00
2018-03-16T09:17:58.291Z,2296.00
2018-03-16T09:18:58.656Z,2268.00
2018-03-16T09:19:58.763Z,2248.00
2018-03-16T09:20:59.031Z,2200.00
2018-03-16T09:21:59.465Z,2176.00
2018-03-16T09:22:59.571Z,2120.00
2018-03-16T09:23:59.806Z,2088.00
2018-03-16T09:25:00.015Z,2068.00
2018-03-16T09:26:00.258Z,2172.00
2018-03-16T09:27:00.524Z,2144.00
2018-03-16T09:28:01.485Z,2204.00
2018-03-16T09:29:01.049Z,2304.00
2018-03-16T09:30:01.289Z,2424.00
2018-03-16T09:31:01.498Z,2484.00
2018-03-16T09:32:01.744Z,2448.00
2018-03-16T09:33:02.943Z,2392.00
2018-03-16T09:34:02.284Z,2408.00
2018-03-16T09:35:02.706Z,2496.00
2018-03-16T09:36:02.839Z,2616.00
2018-03-16T09:37:03.151Z,2672.00
2018-03-16T09:38:03.435Z,2692.00
2018-03-16T09:39:03.522Z,2716.00
2018-03-16T09:40:03.781Z,2764.00
2018-03-16T09:41:04.021Z,2828.00
2018-03-16T09:42:04.266Z,2832.00
2018-03-16T09:43:05.633Z,2824.00
2018-03-16T09:44:04.901Z,2776.00
2018-03-16T09:45:05.289Z,2760.00
2018-03-16T09:46:05.391Z,2748.00
2018-03-16T09:47:05.597Z,2728.00
2018-03-16T09:48:05.974Z,2764.00
2018-03-16T09:49:06.154Z,2648.00
2018-03-16T09:50:06.388Z,2572.00
2018-03-16T09:51:06.603Z,2480.00
2018-03-16T09:52:06.829Z,2388.00
2018-03-16T09:53:07.210Z,2348.00
2018-03-16T09:54:07.372Z,2328.00
2018-03-16T09:55:07.646Z,2328.00
2018-03-16T09:56:08.087Z,2304.00
2018-03-16T09:57:08.204Z,2260.00
2018-03-16T09:58:08.539Z,2240.00
2018-03-16T09:59:08.717Z,2220.00
2018-03-16T10:00:08.931Z,2180.00
2018-03-16T10:01:09.152Z,2132.00
2018-03-16T10:02:09.416Z,2072.00
2018-03-16T10:03:09.662Z,2048.00
2018-03-16T10:04:09.914Z,2036.00
2018-03-16T10:05:10.163Z,2020.00
2018-03-16T10:06:10.423Z,2004.00
2018-03-16T10:07:10.656Z,2016.00
2018-03-16T10:08:10.937Z,2068.00
2018-03-16T10:09:11.146Z,2112.00
2018-03-16T10:10:11.393Z,2140.00
2018-03-16T10:11:11.630Z,2140.00
2018-03-16T10:12:11.952Z,2140.00
2018-03-16T10:13:12.186Z,2212.00
2018-03-16T10:14:12.631Z,2240.00
2018-03-16T10:15:12.628Z,2332.00
2018-03-16T10:16:12.846Z,2364.00
2018-03-16T10:17:13.086Z,2340.00
2018-03-16T10:18:13.330Z,2296.00
2018-03-16T10:19:13.583Z,2248.00
2018-03-16T10:20:13.840Z,2204.00
2018-03-16T10:21:14.087Z,2164.00
2018-03-16T10:22:14.322Z,2152.00
2018-03-16T10:23:14.579Z,2108.00
2018-03-16T10:24:14.831Z,2068.00
2018-03-16T10:25:15.087Z,2012.00
2018-03-16T10:26:15.350Z,1936.00
2018-03-16T10:27:15.606Z,1880.00
2018-03-16T10:28:15.853Z,1852.00
2018-03-16T10:29:16.105Z,1828.00
2018-03-16T10:30:16.354Z,1832.00
2018-03-16T10:31:16.620Z,1880.00
2018-03-16T10:32:16.867Z,1896.00
2018-03-16T10:33:17.114Z,1920.00
2018-03-16T10:34:17.369Z,1936.00
2018-03-16T10:35:17.611Z,1888.00
2018-03-16T10:36:17.861Z,1896.00
2018-03-16T10:37:18.115Z,1876.00
2018-03-16T10:38:18.383Z,1844.00
2018-03-16T10:39:18.660Z,1808.00
2018-03-16T10:40:18.879Z,1764.00
2018-03-16T10:41:19.103Z,1732.00
2018-03-16T10:42:19.356Z,1716.00
2018-03-16T10:43:19.618Z,1744.00
2018-03-16T10:44:19.848Z,1772.00
2018-03-16T10:45:20.100Z,1840.00
2018-03-16T10:46:20.363Z,1884.00
2018-03-16T10:47:20.606Z,1924.00
2018-03-16T10:48:20.852Z,1964.00
2018-03-16T10:49:21.122Z,1964.00
2018-03-16T10:50:21.369Z,1932.00
2018-03-16T10:51:21.623Z,1908.00
2018-03-16T10:52:21.874Z,1908.00
2018-03-16T10:53:22.127Z,1904.00
2018-03-16T10:54:22.388Z,1848.00
2018-03-16T10:55:22.637Z,1716.00
2018-03-16T10:56:22.884Z,1660.00
2018-03-16T10:57:23.142Z,1636.00
2018-03-16T10:58:23.397Z,1652.00
2018-03-16T10:59:23.634Z,1668.00
2018-03-16T11:00:23.886Z,1664.00
2018-03-16T11:01:24.134Z,1688.00
2018-03-16T11:02:24.386Z,1720.00
2018-03-16T11:03:24.640Z,1800.00
2018-03-16T11:04:24.892Z,1936.00
2018-03-16T11:05:25.136Z,1992.00
2018-03-16T11:06:25.379Z,1992.00
2018-03-16T11:07:25.628Z,1972.00
2018-03-16T11:08:25.883Z,1992.00
2018-03-16T11:09:26.142Z,2068.00
2018-03-16T11:10:26.390Z,2144.00
2018-03-16T11:11:26.642Z,2164.00
2018-03-16T11:12:27.854Z,2104.00
2018-03-16T11:13:27.188Z,1992.00
2018-03-16T11:14:27.415Z,1992.00
2018-03-16T11:15:27.670Z,2044.00
2018-03-16T11:16:27.908Z,2096.00
2018-03-16T11:17:28.163Z,2132.00
2018-03-16T11:18:28.415Z,2108.00
2018-03-16T11:19:28.650Z,2064.00
2018-03-16T11:20:28.895Z,2008.00
2018-03-16T11:21:29.153Z,1948.00
2018-03-16T11:22:29.411Z,1936.00
2018-03-16T11:23:29.679Z,1956.00
2018-03-16T11:24:29.918Z,1948.00
2018-03-16T11:25:30.162Z,1956.00
2018-03-16T11:26:30.398Z,1984.00
2018-03-16T11:27:30.651Z,1980.00
2018-03-16T11:28:30.905Z,1984.00
2018-03-16T11:29:31.156Z,1952.00
2018-03-16T11:30:31.396Z,1884.00
2018-03-16T11:31:31.670Z,1808.00
2018-03-16T11:32:31.892Z,1820.00
2018-03-16T11:33:32.140Z,1900.00
2018-03-16T11:34:32.381Z,1936.00
2018-03-16T11:35:32.638Z,1908.00
2018-03-16T11:36:32.905Z,1892.00
2018-03-16T11:37:33.155Z,1880.00
2018-03-16T11:38:33.398Z,1868.00
2018-03-16T11:39:33.646Z,1852.00
2018-03-16T11:40:33.885Z,1824.00
2018-03-16T11:41:34.156Z,1756.00
2018-03-16T11:42:34.401Z,1704.00
2018-03-16T11:43:34.643Z,1708.00
2018-03-16T11:44:34.902Z,1724.00
2018-03-16T11:45:35.199Z,1780.00
2018-03-16T11:46:35.417Z,1800.00
2018-03-16T11:47:35.632Z,1796.00
2018-03-16T11:48:35.887Z,1824.00
2018-03-16T11:49:36.125Z,1820.00
2018-03-16T11:50:36.370Z,1796.00
2018-03-16T11:51:36.649Z,1784.00
2018-03-16T11:52:36.890Z,1788.00
2018-03-16T11:53:37.150Z,1872.00
2018-03-16T11:54:37.383Z,1948.00
2018-03-16T11:55:37.647Z,2020.00
2018-03-16T11:56:37.892Z,2040.00
2018-03-16T11:57:38.138Z,2028.00
2018-03-16T11:58:38.377Z,2028.00
2018-03-16T11:59:39.452Z,2084.00
2018-03-16T12:00:38.977Z,2160.00
2018-03-16T12:01:39.237Z,2220.00
2018-03-16T12:02:39.459Z,2248.00
2018-03-16T12:03:39.797Z,2216.00
2018-03-16T12:04:40.100Z,2240.00
2018-03-16T12:05:40.271Z,2312.00
2018-03-16T12:06:40.529Z,2416.00
2018-03-16T12:07:40.787Z,2564.00
2018-03-16T12:08:41.013Z,2672.00
2018-03-16T12:09:41.309Z,2820.00
2018-03-16T12:10:41.501Z,2956.00
2018-03-16T12:11:41.763Z,3028.00
2018-03-16T12:12:41.993Z,3000.00
2018-03-16T12:13:42.323Z,3032.00
2018-03-16T12:14:42.521Z,3068.00
2018-03-16T12:15:42.761Z,3096.00
2018-03-16T12:16:43.031Z,3016.00
2018-03-16T12:17:43.296Z,2964.00
2018-03-16T12:18:43.543Z,2900.00
2018-03-16T12:19:43.773Z,2904.00
2018-03-16T12:20:44.066Z,2932.00
2018-03-16T12:21:44.395Z,2968.00
2018-03-16T12:22:44.622Z,2996.00
2018-03-16T12:23:44.866Z,2944.00
2018-03-16T12:24:45.064Z,2924.00
2018-03-16T12:25:45.307Z,3164.00
2018-03-16T12:26:45.557Z,2904.00
2018-03-16T12:27:45.817Z,2952.00
2018-03-16T12:28:49.886Z,2988.00
2018-03-16T12:29:46.345Z,3012.00
2018-03-16T12:30:46.646Z,3020.00
2018-03-16T12:31:46.875Z,2972.00
2018-03-16T12:32:47.123Z,2940.00
2018-03-16T12:33:47.348Z,2940.00
2018-03-16T12:34:47.590Z,2876.00
2018-03-16T12:35:47.862Z,2860.00
2018-03-16T12:36:48.099Z,2892.00
2018-03-16T12:37:48.330Z,2836.00
2018-03-16T12:38:48.600Z,2788.00
2018-03-16T12:39:48.821Z,2744.00
2018-03-16T12:40:49.128Z,2616.00
2018-03-16T12:41:49.416Z,2620.00
2018-03-16T12:42:49.634Z,2624.00
2018-03-16T12:43:49.941Z,2640.00
2018-03-16T12:44:50.127Z,2656.00
2018-03-16T12:45:50.395Z,2656.00